Terminal Aerodrome Forecast
Issued by NWS

Home | Current Version | Previous Version | Text Only | Print | Product List | Glossary On
Versions: 1 2 3 4 5 6 7 8 9 10 11 12 13 14 15 16
000
FTUS46 KSEW 021100
TAFHQM
TAF
KHQM 021122Z 0212/0312 04005KT P6SM BKN025 OVC040
     FM021500 04006KT P6SM BKN030
     FM022000 06008KT P6SM SCT030
     FM030000 07010KT P6SM SKC=

USA.gov is the U.S. government's official web portal to all federal, state and local government web resources and services.